Latest Weather Observations for Fowlers Gap

IDN60801

Issued at 6:03 am EDT Tuesday 12 December 2017 (issued every 30 minutes, with the page automatically refreshed every 10 minutes)

About weather observations | Map of weather stations | Latest weather observations for NSW | Other Formats
Station Details ID: 046128 Name: FOWLERS GAP AWS Lat: -31.09 Lon: 141.70 Height: 181.0 m
Data from the previous 72 hours. | See also: Recent months at Fowlers Gap
Date/Time
EDT
Temp
°C
App
Temp
°C
Dew
Point
°C
Rel
Hum
%
Delta-T
°C
Wind Press
QNH
hPa
Press
MSL
hPa
Rain since
9am
mm
Dir  Spd
km/h
Gust
km/h
Spd
kts
Gust
kts
12/06:00am 21.4 18.6 3.1 30 8.8 S 7 9 4 5 1014.6 1013.6 0.0
12/05:30am 22.9 18.9 2.9 27 9.6 SSE 13 22 7 12 1014.5 1013.5 0.0
12/05:00am 24.2 19.2 3.5 26 10.2 SSE 19 26 10 14 1014.2 1013.2 0.0
12/04:30am 24.1 19.2 4.0 27 10.0 SSE 19 26 10 14 1014.2 1013.2 0.0
12/04:00am 24.6 19.6 3.8 26 10.3 SSE 19 22 10 12 1014.2 1013.2 0.0
12/03:30am 24.8 20.3 4.0 26 10.4 SSE 17 22 9 12 1014.2 1013.2 0.0
12/03:00am 24.8 19.8 3.5 25 10.5 SSE 19 24 10 13 1014.4 1013.4 0.0
12/02:30am 25.4 19.8 3.4 24 10.9 SSE 22 28 12 15 1014.6 1013.6 0.0
12/02:00am 26.0 21.3 3.3 23 11.3 SSE 17 22 9 12 1015.1 1014.0 0.0
12/01:30am 25.2 21.4 2.0 22 11.2 SSE 11 15 6 8 1015.4 1014.4 0.0
12/01:00am 26.5 22.0 2.4 21 11.8 SSE 15 20 8 11 1015.6 1014.6 0.0
12/12:30am 27.0 22.1 2.1 20 12.2 SSE 17 20 9 11 1015.7 1014.7 0.0
12/12:00am 26.6 21.7 -0.4 17 12.6 SSE 15 20 8 11 1015.8 1014.8 0.0
 
Date/Time
EDT
Temp
°C
App
Temp
°C
Dew
Point
°C
Rel
Hum
%
Delta-T
°C
Wind Press
QNH
hPa
Press
MSL
hPa
Rain since
9am
mm
Dir  Spd
km/h
Gust
km/h
Spd
kts
Gust
kts
11/11:30pm 26.6 22.0 -1.3 16 12.8 S 13 15 7 8 1016.0 1015.0 0.0
11/11:00pm 27.1 22.3 -2.7 14 13.4 S 13 15 7 8 1016.0 1015.0 0.0
11/10:30pm 28.3 23.5 -2.7 13 14.1 SSE 13 17 7 9 1015.8 1014.8 0.0
11/10:00pm 29.1 23.8 -3.2 12 14.6 SSE 15 17 8 9 1015.6 1014.6 0.0
11/09:30pm 30.9 24.9 -3.0 11 15.6 SSE 19 24 10 13 1015.4 1014.4 0.0
11/09:00pm 31.5 25.4 -2.5 11 15.8 SSE 20 28 11 15 1015.2 1014.1 0.0
11/08:30pm 32.4 26.4 -1.8 11 16.2 SSE 20 30 11 16 1014.9 1013.9 0.0
11/08:00pm 33.5 27.2 -1.0 11 16.7 SSE 22 26 12 14 1014.7 1013.7 0.0
11/07:30pm 34.2 27.6 -0.4 11 17.0 SSE 24 35 13 19 1014.4 1013.4 0.0
11/07:00pm 34.5 29.3 -0.2 11 17.2 SSE 17 28 9 15 1014.2 1013.2 0.0
11/06:30pm 35.1 28.4 1.5 12 17.1 SSE 26 33 14 18 1014.0 1013.0 0.0
11/06:00pm 35.9 30.4 2.1 12 17.5 SE 20 30 11 16 1013.9 1012.9 0.0
11/05:30pm 34.8 29.2 1.2 12 17.0 SE 20 32 11 17 1014.0 1013.0 0.0
11/05:00pm 35.4 30.1 1.7 12 17.3 ESE 19 32 10 17 1014.3 1013.3 0.0
11/04:30pm 35.4 30.5 1.7 12 17.3 ESE 17 28 9 15 1014.6 1013.6 0.0
11/04:00pm 34.5 30.4 2.1 13 16.6 ESE 13 26 7 14 1014.9 1013.9 0.0
11/03:30pm 34.9 30.6 3.5 14 16.5 SSE 15 24 8 13 1015.3 1014.2 0.0
11/03:00pm 34.8 30.5 3.4 14 16.5 E 15 30 8 16 1015.7 1014.7 0.0
11/02:30pm 33.6 30.1 3.4 15 15.7 NNE 11 20 6 11 1015.9 1014.9 0.0
11/02:00pm 33.4 30.2 3.3 15 15.6 SSE 9 19 5 10 1016.4 1015.4 0.0
11/01:30pm 33.4 28.9 4.2 16 15.4 ESE 17 28 9 15 1016.9 1015.9 0.0
11/01:00pm 33.3 29.3 5.0 17 15.1 SSE 15 24 8 13 1017.5 1016.5 0.0
11/12:30pm 32.6 28.3 5.2 18 14.6 SE 17 32 9 17 1018.1 1017.1 0.0
11/12:00pm 31.2 26.3 4.9 19 13.8 SE 20 32 11 17 1018.5 1017.5 0.0
11/11:30am 31.2 25.6 5.6 20 13.7 ESE 24 32 13 17 1018.9 1017.9 0.0
11/11:00am 30.6 24.6 5.1 20 13.4 SE 26 35 14 19 1019.0 1018.0 0.0
11/10:30am 30.8 25.3 6.0 21 13.3 SE 24 37 13 20 1019.2 1018.2 0.0
11/10:00am 28.4 22.3 4.6 22 12.3 SE 26 37 14 20 1019.3 1018.3 0.0
11/09:30am 27.9 21.4 4.9 23 11.9 SE 28 35 15 19 1019.2 1018.2 0.0
11/09:00am 26.2 20.2 5.2 26 10.8 SSE 26 33 14 18 1019.2 1018.2 0.0
11/08:30am 25.1 19.9 5.3 28 10.1 SSE 22 30 12 16 1019.2 1018.2 0.0
11/08:00am 24.2 19.4 5.5 30 9.5 SSE 20 28 11 15 1019.0 1018.0 0.0
11/07:30am 23.1 19.5 5.1 31 9.1 SSE 13 19 7 10 1018.8 1017.8 0.0
11/07:00am 22.2 18.9 4.7 32 8.7 SSE 11 15 6 8 1018.5 1017.5 0.0
11/06:30am 21.6 17.9 4.7 33 8.4 SSE 13 17 7 9 1018.3 1017.3 0.0
11/06:00am 21.2 17.5 4.7 34 8.1 SSE 13 19 7 10 1018.1 1017.1 0.0
11/05:30am 21.3 17.6 4.4 33 8.3 S 13 15 7 8 1018.0 1017.0 0.0
11/05:00am 21.7 17.7 4.7 33 8.4 SSE 15 20 8 11 1017.9 1016.9 0.0
11/04:30am 21.8 17.7 4.4 32 8.6 SSE 15 19 8 10 1017.8 1016.8 0.0
11/04:00am 22.0 17.9 4.1 31 8.8 SSE 15 17 8 9 1017.7 1016.7 0.0
11/03:30am 22.5 18.0 4.1 30 9.1 SSE 17 20 9 11 1017.9 1016.9 0.0
11/03:00am 22.7 18.2 4.2 30 9.1 S 17 22 9 12 1017.9 1016.9 0.0
11/02:30am 22.8 18.3 4.3 30 9.2 S 17 22 9 12 1018.2 1017.2 0.0
11/02:00am 23.8 18.7 4.2 28 9.7 SSE 20 24 11 13 1018.4 1017.4 0.0
11/01:30am 23.9 19.4 4.3 28 9.8 SSE 17 20 9 11 1018.7 1017.7 0.0
11/01:00am 24.7 19.9 4.5 27 10.1 SSE 19 26 10 14 1019.0 1018.0 0.0
11/12:30am 24.9 20.1 4.6 27 10.2 SSE 19 22 10 12 1019.3 1018.3 0.0
11/12:00am 25.5 20.7 4.6 26 10.6 SSE 19 22 10 12 1019.4 1018.4 0.0
 
Date/Time
EDT
Temp
°C
App
Temp
°C
Dew
Point
°C
Rel
Hum
%
Delta-T
°C
Wind Press
QNH
hPa
Press
MSL
hPa
Rain since
9am
mm
Dir  Spd
km/h
Gust
km/h
Spd
kts
Gust
kts
10/11:30pm 25.3 21.2 4.4 26 10.5 S 15 17 8 9 1019.5 1018.5 0.0
10/11:00pm 26.2 22.4 4.1 24 11.1 SSE 13 19 7 10 1019.5 1018.5 0.0
10/10:30pm 27.3 22.8 4.4 23 11.7 SSE 17 22 9 12 1019.4 1018.4 0.0
10/10:00pm 27.7 23.6 4.1 22 12.0 SE 15 17 8 9 1019.1 1018.1 0.0
10/09:30pm 28.4 23.6 4.6 22 12.3 SE 19 26 10 14 1018.8 1017.8 0.0
10/09:00pm 29.1 24.1 4.6 21 12.7 SE 20 24 11 13 1018.5 1017.5 0.0
10/08:30pm 29.8 24.0 4.4 20 13.2 SE 24 30 13 16 1018.2 1017.2 0.0
10/08:00pm 30.6 24.6 3.6 18 13.9 SE 24 30 13 16 1017.8 1016.8 0.0
10/07:30pm 31.5 26.1 4.3 18 14.2 SSE 22 33 12 18 1017.6 1016.6 0.0
10/07:00pm 31.5 25.9 3.5 17 14.4 SE 22 30 12 16 1017.5 1016.5 0.0
10/06:30pm 31.9 26.7 3.8 17 14.6 SE 20 33 11 18 1017.3 1016.3 0.0
10/06:00pm 32.5 27.1 4.3 17 14.8 SSE 22 32 12 17 1017.3 1016.3 0.0
10/05:30pm 32.7 27.1 3.6 16 15.1 SSE 22 30 12 16 1017.4 1016.4 0.0
10/05:00pm 32.4 27.4 3.4 16 15.0 SE 19 26 10 14 1017.5 1016.5 0.0
10/04:30pm 33.5 29.0 4.2 16 15.5 S 17 33 9 18 1017.6 1016.6 0.0
10/04:00pm 31.4 27.7 4.2 18 14.2 SE 13 30 7 16 1017.9 1016.9 0.0
10/03:30pm 32.1 27.6 4.0 17 14.7 S 17 30 9 16 1018.2 1017.2 0.0
10/03:00pm 31.4 26.9 4.2 18 14.2 E 17 30 9 16 1018.7 1017.7 0.0
10/02:30pm 30.9 25.9 4.6 19 13.8 ESE 20 30 11 16 1019.2 1018.2 0.0
10/02:00pm 30.2 26.0 4.0 19 13.5 SSE 15 28 8 15 1019.6 1018.6 0.0
10/01:30pm 30.3 26.3 4.9 20 13.3 SSE 15 24 8 13 1020.2 1019.3 0.0
10/01:00pm 28.8 25.5 4.3 21 12.6 E 11 19 6 10 1020.9 1019.9 0.0
10/12:30pm 28.5 24.2 5.4 23 12.1 SSE 17 26 9 14 1021.2 1020.2 0.0
10/12:00pm 27.9 23.7 5.5 24 11.7 ESE 17 39 9 21 1021.6 1020.6 0.0
10/11:30am 27.5 23.4 6.3 26 11.2 ESE 17 26 9 14 1021.9 1020.9 0.0
10/11:00am 27.2 22.8 6.6 27 10.9 E 19 28 10 15 1022.1 1021.1 0.0
10/10:30am 26.3 21.9 7.4 30 10.1 ESE 20 33 11 18 1022.1 1021.1 0.0
10/10:00am 26.2 21.9 7.7 31 9.9 ESE 20 32 11 17 1022.1 1021.1 0.0
10/09:30am 25.2 20.9 7.8 33 9.3 ESE 20 30 11 16 1022.3 1021.3 0.0
10/09:00am 23.6 19.2 7.3 35 8.5 SE 20 28 11 15 1022.3 1021.3 0.0
10/08:30am 22.5 18.3 7.5 38 7.9 SSE 19 26 10 14 1022.4 1021.4 0.0
10/08:00am 21.5 17.7 7.7 41 7.2 SSE 17 20 9 11 1021.9 1020.9 0.0
10/07:30am 19.8 16.8 7.9 46 6.2 SSE 13 15 7 8 1021.7 1020.7 0.0
10/07:00am 17.8 16.0 7.0 49 5.4 SW 6 9 3 5 1021.3 1020.3 0.0
10/06:30am 16.3 14.2 5.9 50 5.1 NW 6 7 3 4 1020.6 1019.7 0.0
10/06:00am 17.8 15.0 7.0 49 5.4 SSE 11 15 6 8 1020.1 1019.1 0.0
10/05:30am 17.8 14.2 6.7 48 5.6 S 15 17 8 9 1019.8 1018.8 0.0
10/05:00am 19.3 15.4 7.1 45 6.2 SSE 17 20 9 11 1019.6 1018.6 0.0
10/04:30am 19.3 15.8 7.1 45 6.2 SSE 15 20 8 11 1019.5 1018.5 0.0
10/04:00am 19.5 16.3 6.9 44 6.4 SSE 13 19 7 10 1019.5 1018.5 0.0
10/03:30am 19.8 16.2 6.9 43 6.6 SSE 15 19 8 10 1019.6 1018.6 0.0
10/03:00am 20.3 16.3 6.6 41 6.9 SSE 17 22 9 12 1019.7 1018.7 0.0
10/02:30am 20.7 16.2 6.3 39 7.3 SSE 19 26 10 14 1019.8 1018.8 0.0
10/02:00am 20.6 16.3 5.4 37 7.5 SSE 17 22 9 12 1019.8 1018.8 0.0
10/01:30am 20.9 16.5 4.9 35 7.9 SSE 17 22 9 12 1020.1 1019.1 0.0
10/01:00am 21.3 16.8 4.4 33 8.3 SSE 17 20 9 11 1020.3 1019.4 0.0
10/12:30am 21.4 17.2 3.6 31 8.6 SSE 15 20 8 11 1020.5 1019.6 0.0
10/12:00am 21.8 17.5 3.5 30 8.8 SSE 15 19 8 10 1020.6 1019.7 0.0
 
Date/Time
EDT
Temp
°C
App
Temp
°C
Dew
Point
°C
Rel
Hum
%
Delta-T
°C
Wind Press
QNH
hPa
Press
MSL
hPa
Rain since
9am
mm
Dir  Spd
km/h
Gust
km/h
Spd
kts
Gust
kts
09/11:30pm 21.5 17.4 2.2 28 9.1 S 13 15 7 8 1020.7 1019.8 0.0
09/11:00pm 22.4 18.3 2.0 26 9.6 SSE 13 15 7 8 1020.6 1019.7 0.0
09/10:30pm 23.5 18.9 1.8 24 10.3 SSE 15 19 8 10 1020.3 1019.4 0.0
09/10:00pm 24.3 19.4 1.9 23 10.7 SSE 17 22 9 12 1020.1 1019.1 0.0
09/09:30pm 24.7 19.7 1.6 22 11.0 SE 17 22 9 12 1019.9 1018.9 0.0
09/09:00pm 25.4 19.8 1.5 21 11.4 SE 20 26 11 14 1019.7 1018.7 0.0
09/08:30pm 26.0 20.0 1.3 20 11.8 SSE 22 30 12 16 1019.5 1018.5 0.0
09/08:00pm 27.0 20.7 1.4 19 12.3 SE 24 33 13 18 1019.3 1018.3 0.0
09/07:30pm 27.9 21.6 1.4 18 12.9 SSE 24 35 13 19 1019.1 1018.1 0.0
09/07:00pm 27.9 20.8 1.4 18 12.9 SSE 28 35 15 19 1018.8 1017.8 0.0
09/06:30pm 28.4 22.0 1.0 17 13.3 SSE 24 35 13 19 1018.7 1017.7 0.0
09/06:00pm 28.4 21.6 1.0 17 13.2 SSE 26 39 14 21 1018.8 1017.8 0.0
09/05:30pm 28.8 22.5 1.3 17 13.4 SE 24 39 13 21 1018.8 1017.8 0.0
09/05:00pm 28.9 23.3 1.4 17 13.4 SSE 20 32 11 17 1019.0 1018.0 0.0
09/04:30pm 29.0 23.4 1.5 17 13.5 SSE 20 33 11 18 1019.3 1018.3 0.0
09/04:00pm 28.5 22.9 1.1 17 13.3 S 20 33 11 18 1019.5 1018.5 0.0
09/03:30pm 27.5 21.5 1.1 18 12.7 SSE 22 33 12 18 1019.7 1018.7 0.0
09/03:00pm 27.7 22.2 0.5 17 13.0 SE 19 32 10 17 1020.1 1019.1 0.0
09/02:30pm 26.6 21.1 0.4 18 12.4 SSE 19 26 10 14 1020.5 1019.6 0.0
09/02:00pm 26.9 21.3 1.3 19 12.3 SE 20 33 11 18 1020.9 1019.9 0.0
09/01:30pm 26.4 20.9 0.9 19 12.2 SE 19 32 10 17 1021.1 1020.1 0.0
09/01:00pm 25.7 20.1 1.1 20 11.7 SSE 20 32 11 17 1021.4 1020.4 0.0
09/12:30pm 25.6 19.7 1.7 21 11.5 SSE 22 35 12 19 1021.7 1020.7 0.0
09/12:00pm 24.9 19.7 2.4 23 10.9 SE 19 30 10 16 1021.9 1020.9 0.0
09/11:30am 24.9 20.2 3.0 24 10.7 SE 17 28 9 15 1022.2 1021.2 0.0
09/11:00am 23.3 18.0 1.6 24 10.2 SE 19 28 10 15 1022.4 1021.4 0.0
09/10:30am 22.7 17.4 2.8 27 9.6 SSE 20 30 11 16 1022.5 1021.5 0.0
09/10:00am 22.0 16.4 3.6 30 8.9 SSE 22 32 12 17 1022.4 1021.4 0.0
09/09:30am 20.5 14.2 3.7 33 8.1 SSE 26 33 14 18 1022.5 1021.5 0.0
09/09:00am 19.4 12.7 3.6 35 7.5 SSE 28 35 15 19 1022.4 1021.4 0.0
09/08:30am 18.5 11.8 3.9 38 7.0 SSE 28 39 15 21 1022.1 1021.1 0.0
09/08:00am 17.5 12.1 4.5 42 6.2 SSE 22 33 12 18 1021.8 1020.8 0.0
09/07:30am 16.3 10.5 4.4 45 5.6 SSE 24 32 13 17 1021.4 1020.4 0.0
09/07:00am 15.6 9.7 4.0 46 5.4 SSE 24 32 13 17 1021.1 1020.1 0.0
09/06:30am 15.3 9.4 4.1 47 5.2 SSE 24 30 13 16 1020.6 1019.7 0.0

Other Formats:

Comma delimited format used in spreadsheet applications
http://www.bom.gov.au/fwo/IDN60801/IDN60801.94686.axf

JavaScript Object Notation format (JSON) in row-major order
http://www.bom.gov.au/fwo/IDN60801/IDN60801.94686.json